Time;durP1;ratioP1;P1;durP2;ratioP2;P2;SDS_P1;SDS_P2;PMS_P1;PMS_P2;Temp;Humidity;BMP_temperature;BMP_pressure;BME280_temperature;BME280_humidity;BME280_pressure;Samples;Min_cycle;Max_cycle;Signal;HPM_P1;HPM_P2
2024/01/01 00:00:46;;;;;;;40.97;21.43;;;;;;;;;;5027502;28;20109;-65
2024/01/01 00:03:12;;;;;;;38.20;20.23;;;;;;;;;;5027154;28;20107;-66
2024/01/01 00:05:38;;;;;;;33.87;18.93;;;;;;;;;;5026457;28;20704;-66
2024/01/01 00:08:04;;;;;;;35.57;18.80;;;;;;;;;;5027373;28;20041;-65
2024/01/01 00:10:30;;;;;;;40.97;23.60;;;;;;;;;;5027925;28;20075;-65
2024/01/01 00:12:56;;;;;;;48.43;27.13;;;;;;;;;;5026947;28;20037;-66
2024/01/01 00:15:22;;;;;;;59.97;34.40;;;;;;;;;;5027227;28;20052;-65
2024/01/01 00:17:48;;;;;;;54.50;32.50;;;;;;;;;;5027706;28;21072;-65
2024/01/01 00:20:14;;;;;;;61.77;32.33;;;;;;;;;;5027679;28;20049;-65
2024/01/01 00:22:41;;;;;;;64.73;36.90;;;;;;;;;;5026284;28;20044;-65
2024/01/01 00:25:07;;;;;;;62.43;35.93;;;;;;;;;;5027178;28;20052;-65
2024/01/01 00:27:34;;;;;;;57.57;37.23;;;;;;;;;;5027223;28;20124;-65
2024/01/01 00:30:00;;;;;;;62.90;38.77;;;;;;;;;;5027142;28;20049;-65
2024/01/01 00:32:26;;;;;;;61.30;38.63;;;;;;;;;;5026913;28;20450;-65
2024/01/01 00:34:52;;;;;;;63.53;38.50;;;;;;;;;;5027498;28;20034;-65
2024/01/01 00:37:18;;;;;;;61.60;35.77;;;;;;;;;;5027143;28;20573;-65
2024/01/01 00:39:45;;;;;;;54.33;30.83;;;;;;;;;;5028248;28;20041;-65
2024/01/01 00:42:11;;;;;;;51.17;28.90;;;;;;;;;;5026555;28;20049;-65
2024/01/01 00:44:37;;;;;;;43.57;25.47;;;;;;;;;;5026834;28;20590;-65
2024/01/01 00:47:03;;;;;;;41.40;22.20;;;;;;;;;;5026864;28;20048;-65
2024/01/01 00:49:29;;;;;;;40.47;22.63;;;;;;;;;;5027456;28;20419;-65
2024/01/01 00:51:55;;;;;;;41.53;22.83;;;;;;;;;;5027686;28;20037;-65
2024/01/01 00:54:23;;;;;;;33.97;19.93;;;;;;;;;;5026877;28;20077;-65
2024/01/01 00:56:51;;;;;;;34.90;19.10;;;;;;;;;;5018405;28;20080;-65
2024/01/01 00:59:17;;;;;;;44.30;23.80;;;;;;;;;;5026415;28;20547;-65
2024/01/01 01:01:43;;;;;;;36.13;20.93;;;;;;;;;;5025042;28;20125;-65
2024/01/01 01:04:09;;;;;;;39.13;21.67;;;;;;;;;;5030027;28;20526;-65
2024/01/01 01:06:35;;;;;;;40.00;21.00;;;;;;;;;;5031675;28;20045;-65
2024/01/01 01:09:01;;;;;;;38.00;21.27;;;;;;;;;;5030693;28;20491;-65
2024/01/01 01:11:27;;;;;;;35.60;21.23;;;;;;;;;;5029164;28;20051;-65
2024/01/01 01:13:53;;;;;;;32.73;17.80;;;;;;;;;;5029886;28;20049;-65
2024/01/01 01:16:19;;;;;;;32.77;17.53;;;;;;;;;;5030990;28;20088;-65
2024/01/01 01:18:45;;;;;;;36.73;19.00;;;;;;;;;;5030327;28;20044;-65
2024/01/01 01:21:13;;;;;;;32.97;19.20;;;;;;;;;;5030808;28;20037;-64
2024/01/01 01:23:39;;;;;;;34.90;18.53;;;;;;;;;;5029762;28;20042;-65
2024/01/01 01:26:05;;;;;;;32.20;19.10;;;;;;;;;;5030429;28;20051;-65
2024/01/01 01:28:31;;;;;;;37.33;20.03;;;;;;;;;;5031092;28;20404;-65
2024/01/01 01:30:57;;;;;;;36.83;20.93;;;;;;;;;;5030597;28;20102;-65
2024/01/01 01:33:23;;;;;;;34.07;20.00;;;;;;;;;;5031379;28;20531;-65
2024/01/01 01:35:49;;;;;;;36.17;20.17;;;;;;;;;;5030201;28;20110;-65
2024/01/01 01:38:15;;;;;;;35.13;20.90;;;;;;;;;;5031097;28;20495;-65
2024/01/01 01:40:41;;;;;;;37.47;23.10;;;;;;;;;;5030834;28;20333;-65
2024/01/01 01:43:21;;;;;;;35.60;21.20;;;;;;;;;;5030418;28;20462;-64
2024/01/01 01:45:47;;;;;;;36.53;23.13;;;;;;;;;;5028921;28;20057;-65
2024/01/01 01:48:14;;;;;;;35.30;24.13;;;;;;;;;;5030707;28;20499;-65
2024/01/01 01:50:39;;;;;;;38.70;22.33;;;;;;;;;;5029700;28;20073;-65
2024/01/01 01:53:05;;;;;;;36.20;22.83;;;;;;;;;;5030115;28;20088;-65
2024/01/01 01:55:32;;;;;;;32.57;21.77;;;;;;;;;;5030282;28;20037;-65
2024/01/01 01:57:58;;;;;;;28.60;20.60;;;;;;;;;;5030189;28;20079;-65
2024/01/01 02:00:24;;;;;;;29.13;18.97;;;;;;;;;;5029801;28;20058;-64
2024/01/01 02:02:50;;;;;;;31.37;20.60;;;;;;;;;;5030658;28;20045;-65
2024/01/01 02:05:16;;;;;;;25.80;16.50;;;;;;;;;;5030262;28;20047;-64
2024/01/01 02:07:43;;;;;;;24.93;16.47;;;;;;;;;;5029076;28;20049;-65
2024/01/01 02:10:09;;;;;;;27.07;17.03;;;;;;;;;;5030212;28;20507;-65
2024/01/01 02:12:35;;;;;;;20.37;14.63;;;;;;;;;;5030216;28;20045;-65
2024/01/01 02:15:02;;;;;;;23.77;14.10;;;;;;;;;;5029522;28;20081;-65
2024/01/01 02:17:28;;;;;;;28.50;13.27;;;;;;;;;;5030560;28;20056;-65
2024/01/01 02:19:54;;;;;;;23.73;12.37;;;;;;;;;;5030333;28;20509;-64
2024/01/01 02:22:20;;;;;;;16.57;11.40;;;;;;;;;;5028269;28;20096;-64
2024/01/01 02:24:46;;;;;;;20.70;10.80;;;;;;;;;;5028784;28;20042;-65
2024/01/01 02:27:12;;;;;;;21.33;10.83;;;;;;;;;;5029233;28;20076;-64
2024/01/01 02:29:38;;;;;;;18.87;10.27;;;;;;;;;;5029887;28;20041;-65
2024/01/01 02:32:04;;;;;;;20.20;10.33;;;;;;;;;;5029389;28;20041;-65
2024/01/01 02:34:30;;;;;;;19.40;9.83;;;;;;;;;;5030162;28;20399;-65
2024/01/01 02:36:56;;;;;;;22.83;11.23;;;;;;;;;;5028972;28;20037;-66
2024/01/01 02:39:22;;;;;;;18.73;10.47;;;;;;;;;;5029652;28;20136;-66
2024/01/01 02:41:48;;;;;;;21.10;10.80;;;;;;;;;;5030006;28;20045;-66
2024/01/01 02:44:14;;;;;;;24.23;9.87;;;;;;;;;;5028597;28;20103;-66
2024/01/01 02:46:40;;;;;;;20.90;9.77;;;;;;;;;;5029449;28;20046;-65
2024/01/01 02:49:06;;;;;;;17.07;9.17;;;;;;;;;;5029556;28;20128;-65
2024/01/01 02:51:32;;;;;;;16.10;5.73;;;;;;;;;;5029058;28;20057;-65
2024/01/01 02:53:58;;;;;;;15.07;6.00;;;;;;;;;;5029359;28;20045;-66
2024/01/01 02:56:24;;;;;;;19.13;6.37;;;;;;;;;;5028398;28;20495;-65
2024/01/01 02:58:50;;;;;;;14.80;5.63;;;;;;;;;;5028034;28;20072;-65
2024/01/01 03:01:16;;;;;;;9.53;4.63;;;;;;;;;;5028817;28;20041;-65
2024/01/01 03:03:42;;;;;;;17.43;4.67;;;;;;;;;;5029634;28;20076;-66
2024/01/01 03:06:08;;;;;;;17.07;6.13;;;;;;;;;;5029441;28;20052;-66
2024/01/01 03:08:37;;;;;;;18.57;5.70;;;;;;;;;;5029215;28;20152;-66
2024/01/01 03:11:04;;;;;;;20.00;6.50;;;;;;;;;;5029047;28;20083;-66
2024/01/01 03:13:31;;;;;;;14.73;5.90;;;;;;;;;;5028335;28;20041;-66
2024/01/01 03:15:57;;;;;;;10.77;4.50;;;;;;;;;;5028713;28;20408;-66
2024/01/01 03:18:22;;;;;;;10.80;4.37;;;;;;;;;;5029218;28;20045;-66
2024/01/01 03:20:48;;;;;;;12.53;4.57;;;;;;;;;;5028452;28;20045;-66
2024/01/01 03:23:14;;;;;;;13.23;4.70;;;;;;;;;;5027796;28;20662;-66
2024/01/01 03:25:40;;;;;;;16.60;4.43;;;;;;;;;;5027695;28;20050;-66
2024/01/01 03:28:06;;;;;;;16.97;4.37;;;;;;;;;;5028281;28;20045;-66
2024/01/01 03:30:33;;;;;;;13.53;3.73;;;;;;;;;;5028659;28;20072;-66
2024/01/01 03:32:59;;;;;;;12.30;3.97;;;;;;;;;;5027100;28;20045;-66
2024/01/01 03:35:25;;;;;;;13.30;4.40;;;;;;;;;;5028768;28;20087;-65
2024/01/01 03:37:51;;;;;;;12.33;3.03;;;;;;;;;;5028824;28;20088;-65
2024/01/01 03:40:17;;;;;;;8.60;3.67;;;;;;;;;;5028762;28;20050;-66
2024/01/01 03:42:44;;;;;;;8.63;3.23;;;;;;;;;;5027968;28;20053;-65
2024/01/01 03:45:10;;;;;;;10.43;3.63;;;;;;;;;;5028295;28;20055;-65
2024/01/01 03:47:36;;;;;;;13.73;3.70;;;;;;;;;;5028486;28;20045;-66
2024/01/01 03:50:02;;;;;;;14.07;3.77;;;;;;;;;;5027826;28;20041;-66
2024/01/01 03:52:28;;;;;;;10.70;3.10;;;;;;;;;;5028043;28;20392;-65
2024/01/01 03:54:54;;;;;;;15.37;3.20;;;;;;;;;;5028410;28;20049;-65
2024/01/01 03:57:20;;;;;;;9.37;2.93;;;;;;;;;;5028559;28;20072;-65
2024/01/01 03:59:46;;;;;;;11.00;2.90;;;;;;;;;;5028078;28;20045;-66
2024/01/01 04:02:12;;;;;;;9.87;2.70;;;;;;;;;;5028439;28;20049;-65
2024/01/01 04:04:38;;;;;;;10.00;2.57;;;;;;;;;;5027841;28;20053;-65
2024/01/01 04:07:04;;;;;;;12.23;2.80;;;;;;;;;;5027349;28;20049;-65
2024/01/01 04:09:30;;;;;;;12.43;2.97;;;;;;;;;;5028119;28;20099;-66
2024/01/01 04:11:56;;;;;;;11.43;2.73;;;;;;;;;;5028182;28;20041;-65
2024/01/01 04:14:22;;;;;;;10.50;3.00;;;;;;;;;;5027316;28;20041;-66
2024/01/01 04:16:48;;;;;;;9.73;2.63;;;;;;;;;;5027638;28;20073;-66
2024/01/01 04:19:14;;;;;;;12.80;3.13;;;;;;;;;;5026763;28;20088;-66
2024/01/01 04:21:40;;;;;;;14.93;3.17;;;;;;;;;;5028125;28;20081;-66
2024/01/01 04:24:07;;;;;;;13.13;3.80;;;;;;;;;;5027557;28;20107;-66
2024/01/01 04:26:33;;;;;;;14.73;3.93;;;;;;;;;;5028359;28;20577;-65
2024/01/01 04:28:59;;;;;;;17.90;4.47;;;;;;;;;;5028295;28;20041;-66
2024/01/01 04:31:25;;;;;;;19.50;4.60;;;;;;;;;;5028366;28;20049;-66
2024/01/01 04:33:51;;;;;;;11.47;4.20;;;;;;;;;;5027384;28;20095;-68
2024/01/01 04:36:17;;;;;;;12.93;4.47;;;;;;;;;;5028320;28;20496;-66
2024/01/01 04:38:43;;;;;;;16.13;3.60;;;;;;;;;;5027799;28;20080;-66
2024/01/01 04:41:09;;;;;;;16.57;3.97;;;;;;;;;;5026366;28;20081;-66
2024/01/01 04:43:36;;;;;;;17.13;4.53;;;;;;;;;;5026618;28;20057;-66
2024/01/01 04:46:02;;;;;;;18.57;5.10;;;;;;;;;;5026563;28;20057;-66
2024/01/01 04:48:28;;;;;;;19.93;4.73;;;;;;;;;;5027384;28;20057;-66
2024/01/01 04:50:54;;;;;;;18.60;4.80;;;;;;;;;;5027166;28;20068;-67
2024/01/01 04:53:20;;;;;;;14.97;4.63;;;;;;;;;;5027820;28;20094;-66
2024/01/01 04:55:46;;;;;;;23.43;5.67;;;;;;;;;;5026025;28;20037;-66
2024/01/01 04:58:12;;;;;;;16.63;5.60;;;;;;;;;;5027810;28;20046;-66
2024/01/01 05:00:38;;;;;;;25.23;5.70;;;;;;;;;;5027810;28;20041;-66
2024/01/01 05:03:04;;;;;;;22.17;5.00;;;;;;;;;;5027983;28;20037;-66
2024/01/01 05:05:30;;;;;;;16.20;5.50;;;;;;;;;;5027094;28;20045;-66
2024/01/01 05:07:56;;;;;;;20.20;6.17;;;;;;;;;;5026902;28;20148;-66
2024/01/01 05:10:22;;;;;;;23.57;5.50;;;;;;;;;;5026893;28;20045;-66
2024/01/01 05:12:48;;;;;;;22.87;5.23;;;;;;;;;;5027186;28;20403;-66
2024/01/01 05:15:14;;;;;;;23.17;6.60;;;;;;;;;;5026091;28;20054;-66
2024/01/01 05:17:40;;;;;;;28.57;6.47;;;;;;;;;;5027500;28;20410;-67
2024/01/01 05:20:07;;;;;;;22.37;5.97;;;;;;;;;;5028021;28;20461;-66
2024/01/01 05:22:33;;;;;;;21.87;5.83;;;;;;;;;;5025563;28;20099;-66
2024/01/01 05:24:59;;;;;;;21.03;5.47;;;;;;;;;;5027474;28;20388;-66
2024/01/01 05:27:25;;;;;;;22.33;7.30;;;;;;;;;;5026955;28;20045;-67
2024/01/01 05:29:51;;;;;;;23.20;6.40;;;;;;;;;;5025887;28;20103;-67
2024/01/01 05:32:17;;;;;;;29.93;6.80;;;;;;;;;;5027567;28;20042;-66
2024/01/01 05:34:44;;;;;;;24.50;8.00;;;;;;;;;;5026966;28;20048;-66
2024/01/01 05:37:10;;;;;;;18.70;6.10;;;;;;;;;;5027562;28;20411;-66
2024/01/01 05:39:36;;;;;;;24.83;5.90;;;;;;;;;;5026789;28;20038;-66
2024/01/01 05:42:02;;;;;;;18.77;5.90;;;;;;;;;;5026705;28;20038;-67
2024/01/01 05:44:28;;;;;;;19.63;5.70;;;;;;;;;;5026798;28;20065;-66
2024/01/01 05:46:54;;;;;;;24.77;5.83;;;;;;;;;;5026987;28;20057;-66
2024/01/01 05:49:20;;;;;;;19.77;6.30;;;;;;;;;;5029487;28;20046;-66
2024/01/01 05:51:47;;;;;;;19.30;6.77;;;;;;;;;;5030519;28;20056;-66
2024/01/01 05:54:13;;;;;;;24.73;6.63;;;;;;;;;;5030799;28;20057;-64
2024/01/01 05:56:41;;;;;;;26.20;6.53;;;;;;;;;;5029250;28;20068;-64
2024/01/01 05:59:07;;;;;;;27.07;7.50;;;;;;;;;;5030627;28;20648;-65
2024/01/01 06:01:33;;;;;;;23.47;6.87;;;;;;;;;;5030295;28;20511;-64
2024/01/01 06:03:59;;;;;;;29.47;6.33;;;;;;;;;;5028821;28;20045;-65
2024/01/01 06:06:25;;;;;;;32.83;8.63;;;;;;;;;;5030892;28;20059;-65
2024/01/01 06:08:51;;;;;;;20.30;6.10;;;;;;;;;;5030149;28;20107;-64
2024/01/01 06:11:17;;;;;;;24.40;7.03;;;;;;;;;;5030121;28;20129;-64
2024/01/01 06:13:44;;;;;;;21.17;7.17;;;;;;;;;;5030329;28;20041;-65
2024/01/01 06:16:13;;;;;;;28.53;5.63;;;;;;;;;;5028962;28;20053;-64
2024/01/01 06:18:39;;;;;;;25.67;6.90;;;;;;;;;;5030458;28;20728;-64
2024/01/01 06:21:05;;;;;;;25.07;6.87;;;;;;;;;;5029782;28;20581;-64
2024/01/01 06:23:31;;;;;;;20.50;6.75;;;;;;;;;;5030122;28;20045;-65
2024/01/01 06:25:57;;;;;;;17.97;5.83;;;;;;;;;;5029574;28;20045;-65
2024/01/01 06:28:25;;;;;;;23.20;6.57;;;;;;;;;;5028855;28;20037;-64
2024/01/01 06:30:52;;;;;;;23.43;6.47;;;;;;;;;;5029203;28;20097;-64
2024/01/01 06:33:18;;;;;;;24.47;6.90;;;;;;;;;;5028591;28;20054;-65
2024/01/01 06:35:44;;;;;;;23.27;7.53;;;;;;;;;;5029972;28;20115;-65
2024/01/01 06:38:11;;;;;;;27.00;8.00;;;;;;;;;;5028522;28;20085;-64
2024/01/01 06:40:37;;;;;;;19.07;7.43;;;;;;;;;;5029804;28;20344;-64
2024/01/01 06:43:04;;;;;;;19.30;7.23;;;;;;;;;;5029762;28;20037;-65
2024/01/01 06:45:30;;;;;;;24.93;8.20;;;;;;;;;;5029356;28;20060;-64
2024/01/01 06:47:56;;;;;;;23.10;6.87;;;;;;;;;;5028812;28;20044;-65
2024/01/01 06:50:23;;;;;;;25.53;7.27;;;;;;;;;;5029385;28;20068;-64
2024/01/01 06:52:49;;;;;;;20.43;7.47;;;;;;;;;;5029667;28;20092;-64
2024/01/01 06:55:18;;;;;;;26.03;7.37;;;;;;;;;;5029907;28;20041;-64
2024/01/01 06:57:44;;;;;;;24.93;8.40;;;;;;;;;;5029572;28;20400;-65
2024/01/01 07:00:10;;;;;;;17.43;6.40;;;;;;;;;;5026128;28;20562;-65
2024/01/01 07:02:36;;;;;;;24.20;6.97;;;;;;;;;;5029346;28;20088;-65
2024/01/01 07:05:02;;;;;;;21.50;7.93;;;;;;;;;;5028614;28;20438;-65
2024/01/01 07:07:28;;;;;;;26.00;5.43;;;;;;;;;;5029310;28;20056;-66
2024/01/01 07:09:55;;;;;;;26.90;8.47;;;;;;;;;;5029271;28;20045;-65
2024/01/01 07:12:23;;;;;;;23.67;8.37;;;;;;;;;;5027773;28;20396;-66
2024/01/01 07:14:49;;;;;;;21.53;7.50;;;;;;;;;;5024696;28;20037;-65
2024/01/01 07:17:16;;;;;;;26.20;9.87;;;;;;;;;;5029143;28;20056;-64
2024/01/01 07:19:45;;;;;;;37.03;9.63;;;;;;;;;;5029223;28;20045;-64
2024/01/01 07:22:11;;;;;;;21.17;8.57;;;;;;;;;;5028252;28;20045;-65
2024/01/01 07:24:38;;;;;;;29.77;10.47;;;;;;;;;;5028551;28;20056;-65
2024/01/01 07:27:04;;;;;;;24.33;8.10;;;;;;;;;;5028667;28;20407;-65
2024/01/01 07:29:30;;;;;;;27.17;10.70;;;;;;;;;;5027704;28;20099;-65
2024/01/01 07:31:57;;;;;;;16.47;7.27;;;;;;;;;;5029133;28;20108;-65
2024/01/01 07:34:24;;;;;;;36.53;9.10;;;;;;;;;;5027548;28;20046;-64
2024/01/01 07:36:50;;;;;;;25.53;8.67;;;;;;;;;;5028714;28;20133;-65
2024/01/01 07:39:19;;;;;;;24.50;8.00;;;;;;;;;;5028504;28;20056;-65
2024/01/01 07:41:48;;;;;;;30.53;8.60;;;;;;;;;;5028217;28;20091;-64
2024/01/01 07:44:14;;;;;;;23.23;8.67;;;;;;;;;;5028173;28;20515;-64
2024/01/01 07:46:42;;;;;;;22.60;8.77;;;;;;;;;;5027128;28;20424;-65
2024/01/01 07:49:08;;;;;;;24.30;8.87;;;;;;;;;;5028589;28;20041;-64
2024/01/01 07:51:34;;;;;;;21.63;8.53;;;;;;;;;;5028270;28;20566;-64
2024/01/01 07:54:00;;;;;;;28.00;9.93;;;;;;;;;;5028322;28;20503;-64
2024/01/01 07:56:27;;;;;;;29.93;8.03;;;;;;;;;;5028020;28;20125;-64
2024/01/01 07:58:53;;;;;;;22.27;7.60;;;;;;;;;;5027244;28;20041;-64
2024/01/01 08:01:19;;;;;;;24.50;7.97;;;;;;;;;;5028116;28;20304;-64
2024/01/01 08:03:46;;;;;;;23.10;8.47;;;;;;;;;;5027502;28;20045;-64
2024/01/01 08:06:12;;;;;;;28.03;7.83;;;;;;;;;;5024317;28;20064;-64
2024/01/01 08:08:38;;;;;;;26.63;9.17;;;;;;;;;;5026356;28;20038;-64
2024/01/01 08:11:05;;;;;;;24.87;9.73;;;;;;;;;;5027039;28;20140;-64
2024/01/01 08:13:31;;;;;;;23.13;8.70;;;;;;;;;;5028003;28;20042;-64
2024/01/01 08:15:57;;;;;;;26.33;7.87;;;;;;;;;;5027188;28;20813;-64
2024/01/01 08:18:23;;;;;;;21.67;8.40;;;;;;;;;;5027278;28;20423;-64
2024/01/01 08:20:49;;;;;;;24.17;7.70;;;;;;;;;;5027276;28;20385;-64
2024/01/01 08:23:15;;;;;;;24.53;8.50;;;;;;;;;;5027309;28;20107;-64
2024/01/01 08:25:41;;;;;;;23.47;7.63;;;;;;;;;;5025279;28;20045;-64
2024/01/01 08:28:07;;;;;;;26.83;8.57;;;;;;;;;;5027756;28;20037;-65
2024/01/01 08:30:33;;;;;;;20.20;6.97;;;;;;;;;;5025544;28;20048;-64
2024/01/01 08:32:59;;;;;;;23.27;6.97;;;;;;;;;;5027728;28;20420;-64
2024/01/01 08:35:25;;;;;;;25.33;7.87;;;;;;;;;;5027728;28;20041;-64
2024/01/01 08:37:51;;;;;;;18.60;6.13;;;;;;;;;;5027489;28;20415;-64
2024/01/01 08:40:18;;;;;;;21.27;7.40;;;;;;;;;;5027597;28;20444;-64
2024/01/01 08:42:44;;;;;;;19.57;5.90;;;;;;;;;;5027102;28;20057;-64
2024/01/01 08:45:10;;;;;;;27.07;6.30;;;;;;;;;;5027548;28;20053;-64
2024/01/01 08:47:36;;;;;;;18.13;5.97;;;;;;;;;;5027063;28;20415;-64
2024/01/01 08:50:02;;;;;;;19.23;7.13;;;;;;;;;;5027530;28;20214;-64
2024/01/01 08:52:29;;;;;;;23.00;6.37;;;;;;;;;;5024473;28;20046;-64
2024/01/01 08:54:55;;;;;;;20.40;6.67;;;;;;;;;;5027634;28;20041;-64
2024/01/01 08:57:21;;;;;;;27.17;7.03;;;;;;;;;;5027110;28;20065;-64
2024/01/01 08:59:47;;;;;;;22.27;6.00;;;;;;;;;;5026936;28;20104;-64
2024/01/01 09:02:13;;;;;;;21.30;7.20;;;;;;;;;;5027303;28;20056;-64
2024/01/01 09:04:39;;;;;;;17.10;7.67;;;;;;;;;;5022651;28;20099;-64
2024/01/01 09:07:05;;;;;;;18.20;5.57;;;;;;;;;;5026001;28;20833;-64
2024/01/01 09:09:31;;;;;;;24.47;6.40;;;;;;;;;;5024816;28;20048;-65
2024/01/01 09:11:57;;;;;;;21.97;6.73;;;;;;;;;;5024434;28;20453;-64
2024/01/01 09:14:25;;;;;;;24.20;8.60;;;;;;;;;;5025762;28;20077;-65
2024/01/01 09:16:51;;;;;;;19.57;6.40;;;;;;;;;;5026255;28;20049;-64
2024/01/01 09:19:17;;;;;;;22.70;8.10;;;;;;;;;;5026920;28;20049;-64
2024/01/01 09:21:46;;;;;;;18.53;5.80;;;;;;;;;;5026239;28;20496;-64
2024/01/01 09:24:12;;;;;;;20.33;6.50;;;;;;;;;;5030247;28;20041;-65
2024/01/01 09:26:38;;;;;;;21.87;6.80;;;;;;;;;;5030820;28;20049;-64
2024/01/01 09:29:04;;;;;;;19.73;5.60;;;;;;;;;;5030284;28;20459;-65
2024/01/01 09:31:33;;;;;;;21.53;7.03;;;;;;;;;;5030822;28;20551;-65
2024/01/01 09:34:06;;;;;;;20.00;5.00;;;;;;;;;;5030664;28;20069;-65
2024/01/01 09:36:32;;;;;;;22.90;6.07;;;;;;;;;;5022889;28;20047;-64
2024/01/01 09:38:58;;;;;;;26.03;6.33;;;;;;;;;;5030983;28;20101;-65
2024/01/01 09:41:25;;;;;;;14.50;4.97;;;;;;;;;;5030067;28;20128;-65
2024/01/01 09:43:51;;;;;;;26.47;7.77;;;;;;;;;;5028872;28;20053;-65
2024/01/01 09:46:18;;;;;;;19.03;6.20;;;;;;;;;;5029626;28;20191;-66
2024/01/01 09:48:45;;;;;;;15.67;5.80;;;;;;;;;;5030482;28;20042;-65
2024/01/01 09:51:11;;;;;;;17.93;6.47;;;;;;;;;;5030235;28;20500;-65
2024/01/01 09:53:38;;;;;;;21.10;4.10;;;;;;;;;;5030389;28;20073;-65
2024/01/01 09:56:04;;;;;;;15.70;4.23;;;;;;;;;;5028095;28;20463;-65
2024/01/01 09:58:39;;;;;;;14.60;3.87;;;;;;;;;;5028417;28;20049;-65
2024/01/01 10:01:24;;;;;;;11.57;3.67;;;;;;;;;;5027306;28;20729;-65
2024/01/01 10:04:02;;;;;;;11.73;3.67;;;;;;;;;;5029491;28;20049;-65
2024/01/01 10:06:29;;;;;;;14.97;4.00;;;;;;;;;;5026525;28;20052;-65
2024/01/01 10:09:08;;;;;;;23.17;6.67;;;;;;;;;;5029124;28;20049;-65
2024/01/01 10:11:34;;;;;;;19.77;5.20;;;;;;;;;;5030270;28;20068;-65
2024/01/01 10:14:04;;;;;;;20.27;6.40;;;;;;;;;;5028337;28;20435;-66
2024/01/01 10:16:33;;;;;;;14.03;5.13;;;;;;;;;;5028174;28;20056;-65
2024/01/01 10:19:01;;;;;;;16.03;6.07;;;;;;;;;;5029017;28;20045;-65
2024/01/01 10:21:34;;;;;;;20.80;5.80;;;;;;;;;;5029445;28;20044;-65
2024/01/01 10:24:21;;;;;;;22.07;4.87;;;;;;;;;;5029016;28;20400;-65
2024/01/01 10:26:49;;;;;;;15.53;4.43;;;;;;;;;;5027399;28;20056;-65
2024/01/01 10:29:16;;;;;;;18.13;4.27;;;;;;;;;;5029494;28;20049;-65
2024/01/01 10:31:48;;;;;;;18.43;4.63;;;;;;;;;;5029171;28;20091;-64
2024/01/01 10:34:15;;;;;;;20.30;3.13;;;;;;;;;;5026920;28;20068;-64
2024/01/01 10:36:41;;;;;;;14.33;3.10;;;;;;;;;;5028955;28;20362;-65
2024/01/01 10:39:08;;;;;;;14.97;3.10;;;;;;;;;;5029500;28;20455;-64
2024/01/01 10:41:35;;;;;;;16.63;3.30;;;;;;;;;;5029595;28;20051;-65
2024/01/01 10:44:08;;;;;;;18.00;3.13;;;;;;;;;;5028747;28;20060;-65
2024/01/01 10:46:36;;;;;;;14.80;2.70;;;;;;;;;;5028802;28;20566;-65
2024/01/01 10:49:03;;;;;;;22.77;3.90;;;;;;;;;;5028651;28;20495;-65
2024/01/01 10:51:41;;;;;;;14.63;3.73;;;;;;;;;;5029200;28;20499;-65
2024/01/01 10:54:27;;;;;;;11.10;3.27;;;;;;;;;;5028616;28;20405;-65
2024/01/01 10:57:08;;;;;;;14.23;2.73;;;;;;;;;;5028392;28;20509;-65
2024/01/01 10:59:44;;;;;;;14.13;2.60;;;;;;;;;;5027993;28;20069;-65
2024/01/01 11:02:11;;;;;;;13.13;3.23;;;;;;;;;;5026248;28;20599;-65
2024/01/01 11:04:37;;;;;;;12.63;3.50;;;;;;;;;;5027001;28;20122;-65
2024/01/01 11:07:03;;;;;;;16.40;4.47;;;;;;;;;;5027166;28;20449;-65
2024/01/01 11:09:30;;;;;;;16.67;3.63;;;;;;;;;;5026107;28;20115;-65
2024/01/01 11:11:56;;;;;;;13.10;3.63;;;;;;;;;;5026227;28;20402;-64
2024/01/01 11:14:28;;;;;;;16.53;3.33;;;;;;;;;;5027409;28;20041;-64
2024/01/01 11:16:56;;;;;;;19.27;3.37;;;;;;;;;;5026310;28;20045;-65
2024/01/01 11:19:35;;;;;;;15.43;2.73;;;;;;;;;;5028726;28;20419;-65
2024/01/01 11:22:29;;;;;;;11.57;3.03;;;;;;;;;;5028361;28;20517;-65
2024/01/01 11:24:55;;;;;;;21.20;4.30;;;;;;;;;;5028079;28;20099;-64
2024/01/01 11:27:24;;;;;;;11.53;3.03;;;;;;;;;;5028458;28;20052;-65
2024/01/01 11:29:50;;;;;;;14.67;3.20;;;;;;;;;;5028084;28;20475;-65
2024/01/01 11:32:20;;;;;;;16.63;4.87;;;;;;;;;;5027725;28;20412;-64
2024/01/01 11:35:05;;;;;;;18.80;3.77;;;;;;;;;;5026641;28;20110;-65
2024/01/01 11:37:31;;;;;;;14.57;4.70;;;;;;;;;;5021369;28;20045;-65
2024/01/01 11:39:58;;;;;;;22.77;4.10;;;;;;;;;;5027435;28;20407;-66
2024/01/01 11:42:24;;;;;;;20.83;3.97;;;;;;;;;;5027764;28;20121;-65
2024/01/01 11:44:50;;;;;;;16.43;3.00;;;;;;;;;;5027617;28;20045;-65
2024/01/01 11:47:19;;;;;;;16.20;3.13;;;;;;;;;;5026500;28;20107;-65
2024/01/01 11:49:53;;;;;;;16.00;3.20;;;;;;;;;;5027356;28;20073;-65
2024/01/01 11:52:19;;;;;;;20.73;3.47;;;;;;;;;;5027659;28;20129;-65
2024/01/01 11:54:48;;;;;;;11.80;2.50;;;;;;;;;;5026301;28;20053;-64
2024/01/01 11:57:14;;;;;;;14.93;2.93;;;;;;;;;;5027557;28;20503;-65
2024/01/01 11:59:40;;;;;;;18.67;2.90;;;;;;;;;;5027521;28;20096;-65
2024/01/01 12:02:08;;;;;;;12.13;3.80;;;;;;;;;;5027554;28;20176;-65
2024/01/01 12:04:36;;;;;;;13.20;2.60;;;;;;;;;;5027101;28;20502;-65
2024/01/01 12:07:02;;;;;;;9.77;2.37;;;;;;;;;;5024177;28;20053;-65
2024/01/01 12:09:28;;;;;;;13.33;2.67;;;;;;;;;;5024586;28;20049;-66
2024/01/01 12:12:03;;;;;;;18.33;3.37;;;;;;;;;;5026127;28;20124;-66
2024/01/01 12:14:29;;;;;;;10.43;2.93;;;;;;;;;;5027167;28;20050;-66
2024/01/01 12:16:57;;;;;;;16.67;2.90;;;;;;;;;;5026450;28;20045;-65
2024/01/01 12:19:23;;;;;;;16.57;3.60;;;;;;;;;;5026698;28;20428;-65
2024/01/01 12:21:51;;;;;;;18.77;3.10;;;;;;;;;;5027048;28;20038;-65
2024/01/01 12:24:18;;;;;;;12.30;3.03;;;;;;;;;;5025756;28;20500;-65
2024/01/01 12:26:50;;;;;;;12.93;2.80;;;;;;;;;;5026275;28;20047;-65
2024/01/01 12:29:18;;;;;;;18.63;3.87;;;;;;;;;;5025534;28;20091;-65
2024/01/01 12:31:45;;;;;;;20.77;3.70;;;;;;;;;;5032032;28;20317;-65
2024/01/01 12:34:15;;;;;;;16.00;4.20;;;;;;;;;;5026604;28;20459;-65
2024/01/01 12:36:43;;;;;;;13.03;2.50;;;;;;;;;;5027153;28;20371;-65
2024/01/01 12:39:10;;;;;;;17.77;3.77;;;;;;;;;;5027066;28;20052;-65
2024/01/01 12:41:36;;;;;;;12.17;3.00;;;;;;;;;;5023767;28;20045;-65
2024/01/01 12:44:02;;;;;;;21.47;3.53;;;;;;;;;;5024824;28;20072;-65
2024/01/01 12:46:29;;;;;;;13.10;3.17;;;;;;;;;;5027781;28;20464;-65
2024/01/01 12:48:56;;;;;;;16.83;4.60;;;;;;;;;;5025772;28;20041;-65
2024/01/01 12:51:23;;;;;;;16.30;3.73;;;;;;;;;;5026663;28;20053;-65
2024/01/01 12:53:50;;;;;;;15.13;3.10;;;;;;;;;;5027098;28;20045;-65
2024/01/01 12:56:16;;;;;;;15.53;4.27;;;;;;;;;;5026151;28;20515;-65
2024/01/01 12:58:42;;;;;;;21.57;3.80;;;;;;;;;;5029876;28;20132;-64
2024/01/01 13:01:10;;;;;;;13.57;2.73;;;;;;;;;;5033199;28;20139;-65
2024/01/01 13:03:43;;;;;;;26.40;3.70;;;;;;;;;;5031335;28;20096;-64
2024/01/01 13:06:10;;;;;;;19.55;4.28;;;;;;;;;;5024994;28;20547;-65
2024/01/01 13:08:37;;;;;;;20.27;4.90;;;;;;;;;;5029149;28;20566;-65
2024/01/01 13:11:06;;;;;;;19.50;3.73;;;;;;;;;;5029730;28;20045;-64
2024/01/01 13:13:34;;;;;;;20.30;4.10;;;;;;;;;;5030864;28;20103;-64
2024/01/01 13:16:00;;;;;;;15.00;2.80;;;;;;;;;;5030832;28;20704;-65
2024/01/01 13:18:26;;;;;;;20.53;3.17;;;;;;;;;;5031049;28;20041;-64
2024/01/01 13:20:52;;;;;;;15.93;2.40;;;;;;;;;;5030370;28;20570;-64
2024/01/01 13:23:18;;;;;;;20.80;3.43;;;;;;;;;;5026236;28;20495;-64
2024/01/01 13:25:45;;;;;;;18.40;3.10;;;;;;;;;;5030024;28;20345;-65
2024/01/01 13:28:19;;;;;;;15.17;2.60;;;;;;;;;;5029133;28;20400;-65
2024/01/01 13:30:46;;;;;;;21.63;3.27;;;;;;;;;;5029456;28;20051;-64
2024/01/01 13:33:12;;;;;;;18.83;3.67;;;;;;;;;;5029003;28;20058;-64
2024/01/01 13:35:40;;;;;;;17.50;3.30;;;;;;;;;;5029342;28;20048;-64
2024/01/01 13:38:06;;;;;;;15.50;2.90;;;;;;;;;;5028969;28;20053;-64
2024/01/01 13:40:32;;;;;;;14.13;2.40;;;;;;;;;;5032203;28;20125;-64
2024/01/01 13:42:58;;;;;;;13.17;2.80;;;;;;;;;;5030245;28;20131;-64
2024/01/01 13:45:24;;;;;;;14.70;2.83;;;;;;;;;;5031121;28;20525;-64
2024/01/01 13:47:50;;;;;;;21.60;3.63;;;;;;;;;;5031168;28;20045;-64
2024/01/01 13:50:17;;;;;;;18.23;3.00;;;;;;;;;;5027877;28;20526;-64
2024/01/01 13:52:44;;;;;;;18.47;3.10;;;;;;;;;;5030989;28;20053;-64
2024/01/01 13:55:10;;;;;;;17.33;2.70;;;;;;;;;;5029783;28;20052;-64
2024/01/01 13:57:36;;;;;;;18.17;2.90;;;;;;;;;;5031239;28;20087;-64
2024/01/01 14:00:03;;;;;;;17.07;2.90;;;;;;;;;;5030006;28;20046;-63
2024/01/01 14:02:29;;;;;;;22.33;3.30;;;;;;;;;;5030510;28;20045;-64
2024/01/01 14:04:55;;;;;;;17.90;2.70;;;;;;;;;;5029708;28;20057;-64
2024/01/01 14:07:22;;;;;;;19.63;4.17;;;;;;;;;;5030823;28;20041;-64
2024/01/01 14:09:48;;;;;;;17.97;2.60;;;;;;;;;;5028012;28;20069;-64
2024/01/01 14:12:14;;;;;;;16.33;3.77;;;;;;;;;;5030480;28;21321;-64
2024/01/01 14:14:43;;;;;;;11.47;2.77;;;;;;;;;;5029260;28;20049;-64
2024/01/01 14:17:09;;;;;;;19.13;2.63;;;;;;;;;;5028051;28;20099;-64
2024/01/01 14:19:35;;;;;;;17.20;2.47;;;;;;;;;;5029767;28;20288;-64
2024/01/01 14:22:02;;;;;;;17.30;2.40;;;;;;;;;;5027549;28;20559;-64
2024/01/01 14:24:28;;;;;;;15.43;4.37;;;;;;;;;;5028450;28;20049;-64
2024/01/01 14:26:54;;;;;;;16.13;2.60;;;;;;;;;;5027585;28;20040;-64